Time;durP1;ratioP1;P1;durP2;ratioP2;P2;SDS_P1;SDS_P2;PMS_P1;PMS_P2;Temp;Humidity;BMP_temperature;BMP_pressure;BME280_temperature;BME280_humidity;BME280_pressure;Samples;Min_cycle;Max_cycle;Signal;HPM_P1;HPM_P2
2023/05/03 00:02:21;;;;;;;2.97;1.20;;;;;;;-143.99;100.00;64180.81;6152375;28;20227;-79
2023/05/03 00:05:43;;;;;;;3.30;1.37;;;;;;;-143.99;100.00;64180.81;6136677;28;20246;-79
2023/05/03 00:09:03;;;;;;;1.97;1.77;;;;;;;-143.99;100.00;64180.81;6125126;28;20235;-79
2023/05/03 00:12:24;;;;;;;3.13;1.57;;;;;;;-143.99;100.00;64180.81;6146745;28;20231;-78
2023/05/03 00:15:45;;;;;;;2.27;1.50;;;;;;;-143.99;100.00;64180.81;6130779;28;20594;-78
2023/05/03 00:19:07;;;;;;;1.20;1.00;;;;;;;-143.99;100.00;64180.81;6125453;28;20703;-78
2023/05/03 00:22:28;;;;;;;4.27;2.13;;;;;;;-143.99;100.00;64180.81;6153107;28;20502;-79
2023/05/03 00:25:52;;;;;;;4.90;2.90;;;;;;;-143.99;100.00;64180.81;6136520;28;20231;-79
2023/05/03 00:29:13;;;;;;;2.17;1.80;;;;;;;-143.99;100.00;64180.81;6133471;28;20250;-79
2023/05/03 00:32:34;;;;;;;1.07;1.07;;;;;;;-143.99;100.00;64180.81;6148504;28;20231;-79
2023/05/03 00:35:56;;;;;;;1.40;1.30;;;;;;;-143.99;100.00;64180.81;6141140;28;20494;-78
2023/05/03 00:39:17;;;;;;;2.37;1.67;;;;;;;-143.99;100.00;64180.81;6134733;28;20588;-78
2023/05/03 00:42:37;;;;;;;1.43;1.33;;;;;;;-143.99;100.00;64180.81;6150407;28;20231;-79
2023/05/03 00:45:59;;;;;;;3.57;1.43;;;;;;;-143.99;100.00;64180.81;6148194;28;20231;-78
2023/05/03 00:49:21;;;;;;;1.33;1.00;;;;;;;-143.99;100.00;64180.81;6146702;28;20250;-77
2023/05/03 00:52:45;;;;;;;1.30;1.03;;;;;;;-143.99;100.00;64180.81;6143737;28;20238;-78
2023/05/03 00:56:07;;;;;;;2.23;1.60;;;;;;;-143.99;100.00;64180.81;6131818;28;20238;-78
2023/05/03 00:59:27;;;;;;;4.27;1.57;;;;;;;-143.99;100.00;64180.81;6132635;28;20225;-78
2023/05/03 01:02:49;;;;;;;0.97;0.97;;;;;;;-143.99;100.00;64180.81;6135165;28;20243;-78
2023/05/03 01:06:17;;;;;;;2.17;1.73;;;;;;;-143.99;100.00;64180.81;6118943;28;20222;-79
2023/05/03 01:09:49;;;;;;;1.67;1.57;;;;;;;-143.99;100.00;64180.81;6126990;28;20253;-78
2023/05/03 01:13:18;;;;;;;6.47;2.50;;;;;;;-143.99;100.00;64180.81;6136996;28;20672;-77
2023/05/03 01:16:43;;;;;;;2.63;1.33;;;;;;;-143.99;100.00;64180.81;6132284;28;20235;-78
2023/05/03 01:20:09;;;;;;;3.80;1.37;;;;;;;-143.99;100.00;64180.81;6129967;28;20234;-78
2023/05/03 01:23:36;;;;;;;3.00;1.50;;;;;;;-143.99;100.00;64180.81;6137319;28;20231;-79
2023/05/03 01:26:58;;;;;;;2.50;1.70;;;;;;;-143.99;100.00;64180.81;6129831;28;20235;-79
2023/05/03 01:30:23;;;;;;;2.53;2.33;;;;;;;-143.99;100.00;64180.81;6138864;28;20238;-79
2023/05/03 01:33:49;;;;;;;1.43;1.33;;;;;;;-143.99;100.00;64180.81;6130075;28;20272;-79
2023/05/03 01:37:13;;;;;;;2.63;2.10;;;;;;;-143.99;100.00;64180.81;6136372;28;20321;-79
2023/05/03 01:40:45;;;;;;;2.40;1.73;;;;;;;-143.99;100.00;64180.81;6152381;28;20582;-78
2023/05/03 01:44:09;;;;;;;2.20;1.83;;;;;;;-143.99;100.00;64180.81;6129601;28;20605;-78
2023/05/03 01:47:30;;;;;;;1.77;1.17;;;;;;;-143.99;100.00;64180.81;6111602;28;20291;-78
2023/05/03 01:50:51;;;;;;;1.03;1.03;;;;;;;-143.99;100.00;64180.81;6136087;28;20247;-78
2023/05/03 01:54:12;;;;;;;3.00;1.10;;;;;;;-143.99;100.00;64180.81;6127154;28;20694;-78
2023/05/03 01:57:33;;;;;;;1.70;0.93;;;;;;;-143.99;100.00;64180.81;6140012;28;20561;-78
2023/05/03 02:00:55;;;;;;;1.97;1.87;;;;;;;-143.99;100.00;64180.81;6130797;28;20222;-79
2023/05/03 02:04:16;;;;;;;3.30;1.83;;;;;;;-143.99;100.00;64180.81;6125573;28;20263;-78
2023/05/03 02:07:37;;;;;;;3.70;1.33;;;;;;;-143.99;100.00;64180.81;6129326;28;20604;-78
2023/05/03 02:10:58;;;;;;;2.27;1.30;;;;;;;-143.99;100.00;64180.81;6136438;28;20226;-78
2023/05/03 02:14:19;;;;;;;1.17;1.00;;;;;;;-143.99;100.00;64180.81;6134756;28;21153;-78
2023/05/03 02:17:44;;;;;;;2.13;1.33;;;;;;;-143.99;100.00;64180.81;6153444;28;20232;-78
2023/05/03 02:21:05;;;;;;;2.03;1.10;;;;;;;-143.99;100.00;64180.81;6141541;28;20249;-78
2023/05/03 02:24:26;;;;;;;1.70;1.60;;;;;;;-143.99;100.00;64180.81;6146034;28;20254;-78
2023/05/03 02:27:47;;;;;;;1.20;1.10;;;;;;;-143.99;100.00;64180.81;6149257;28;20321;-78
2023/05/03 02:31:09;;;;;;;2.47;2.13;;;;;;;-143.99;100.00;64180.81;6149024;28;20322;-78
2023/05/03 02:34:32;;;;;;;1.10;1.00;;;;;;;-143.99;100.00;64180.81;6117526;28;20389;-78
2023/05/03 02:37:52;;;;;;;1.10;1.10;;;;;;;-143.99;100.00;64180.81;6142146;28;20230;-79
2023/05/03 02:41:14;;;;;;;3.17;1.30;;;;;;;-143.99;100.00;64180.81;6138393;28;20239;-79
2023/05/03 02:44:35;;;;;;;4.00;1.33;;;;;;;-143.99;100.00;64180.81;6127410;28;20239;-78
2023/05/03 02:47:55;;;;;;;1.00;0.90;;;;;;;-143.99;100.00;64180.81;6139909;28;20232;-78
2023/05/03 02:51:19;;;;;;;2.37;2.00;;;;;;;-143.99;100.00;64180.81;6136335;28;20227;-79
2023/05/03 02:54:40;;;;;;;1.60;1.50;;;;;;;-143.99;100.00;64180.81;6137060;28;20230;-79
2023/05/03 02:58:05;;;;;;;3.00;1.37;;;;;;;-143.99;100.00;64180.81;6138079;28;20239;-79
2023/05/03 03:01:26;;;;;;;1.70;1.20;;;;;;;-143.99;100.00;64180.81;6148388;28;21080;-78
2023/05/03 03:04:48;;;;;;;1.70;1.60;;;;;;;-143.99;100.00;64180.81;6135210;28;20254;-78
2023/05/03 03:08:10;;;;;;;3.10;1.43;;;;;;;-143.99;100.00;64180.81;6144309;28;20302;-79
2023/05/03 03:11:31;;;;;;;4.60;1.50;;;;;;;-143.99;100.00;64180.81;6146240;28;20235;-78
2023/05/03 03:14:52;;;;;;;4.90;2.60;;;;;;;-143.99;100.00;64180.81;6145390;28;20238;-79
2023/05/03 03:18:13;;;;;;;1.70;1.20;;;;;;;-143.99;100.00;64180.81;6154304;28;20581;-79
2023/05/03 03:21:35;;;;;;;2.17;1.60;;;;;;;-143.99;100.00;64180.81;6139790;28;20231;-79
2023/05/03 03:24:58;;;;;;;1.90;1.60;;;;;;;-143.99;100.00;64180.81;6130932;28;20486;-77
2023/05/03 03:28:19;;;;;;;2.70;2.37;;;;;;;-143.99;100.00;64180.81;6143699;28;20236;-78
2023/05/03 03:31:40;;;;;;;2.70;1.90;;;;;;;-143.99;100.00;64180.81;6133472;28;20231;-77
2023/05/03 03:35:02;;;;;;;3.03;2.57;;;;;;;-143.99;100.00;64180.81;6137827;28;20235;-78
2023/05/03 03:38:24;;;;;;;7.63;2.03;;;;;;;-143.99;100.00;64180.81;6137604;28;20641;-79
2023/05/03 03:41:53;;;;;;;6.20;1.67;;;;;;;-143.99;100.00;64180.81;6132906;28;20226;-78
2023/05/03 03:45:14;;;;;;;4.87;2.63;;;;;;;-143.99;100.00;64180.81;6130343;28;20723;-78
2023/05/03 03:48:36;;;;;;;2.03;1.87;;;;;;;-143.99;100.00;64180.81;6136146;28;20243;-77
2023/05/03 03:51:57;;;;;;;2.67;2.47;;;;;;;-143.99;100.00;64180.81;6124588;28;20499;-79
2023/05/03 03:55:18;;;;;;;2.70;1.93;;;;;;;-143.99;100.00;64180.81;6151960;28;20322;-79
2023/05/03 03:58:44;;;;;;;3.23;2.90;;;;;;;-143.99;100.00;64180.81;6137876;28;20230;-78
2023/05/03 04:02:07;;;;;;;13.67;11.57;;;;;;;-143.99;100.00;64180.81;6136537;28;20236;-78
2023/05/03 04:05:29;;;;;;;6.33;5.70;;;;;;;-143.99;100.00;64180.81;6136432;28;21114;-78
2023/05/03 04:08:50;;;;;;;2.87;2.40;;;;;;;-143.99;100.00;64180.81;6147912;28;20235;-78
2023/05/03 04:12:11;;;;;;;4.57;2.40;;;;;;;-143.99;100.00;64180.81;6141164;28;20243;-78
2023/05/03 04:15:35;;;;;;;3.50;3.20;;;;;;;-143.99;100.00;64180.81;6130621;28;20250;-78
2023/05/03 04:18:58;;;;;;;2.23;1.93;;;;;;;-143.99;100.00;64180.81;6131961;28;20231;-78
2023/05/03 04:22:20;;;;;;;4.20;2.43;;;;;;;-143.99;100.00;64180.81;6132985;28;20238;-78
2023/05/03 04:25:45;;;;;;;3.83;2.43;;;;;;;-143.99;100.00;64180.81;6137145;28;20243;-78
2023/05/03 04:29:06;;;;;;;7.67;2.40;;;;;;;-143.99;100.00;64180.81;6125772;28;20235;-78
2023/05/03 04:32:35;;;;;;;6.03;2.00;;;;;;;-143.99;100.00;64180.81;6133848;28;20235;-78
2023/05/03 04:35:57;;;;;;;2.50;1.77;;;;;;;-143.99;100.00;64180.81;6126008;28;20253;-79
2023/05/03 04:39:20;;;;;;;2.37;1.57;;;;;;;-143.99;100.00;64180.81;6134319;28;20222;-78
2023/05/03 04:42:42;;;;;;;2.27;2.13;;;;;;;-143.99;100.00;64180.81;6131201;28;20559;-78
2023/05/03 04:46:04;;;;;;;1.40;1.23;;;;;;;-143.99;100.00;64180.81;6127960;28;20540;-78
2023/05/03 04:49:27;;;;;;;21.00;15.70;;;;;;;-143.99;100.00;64180.81;6135536;28;21723;-74
2023/05/03 04:52:48;;;;;;;7.70;6.83;;;;;;;-143.99;100.00;64180.81;6140036;28;20243;-80
2023/05/03 04:56:09;;;;;;;2.67;2.43;;;;;;;-143.99;100.00;64180.81;6127745;28;20247;-81
2023/05/03 04:59:33;;;;;;;3.10;2.37;;;;;;;-143.99;100.00;64180.81;6127488;28;20243;-81
2023/05/03 05:02:55;;;;;;;2.80;1.60;;;;;;;-143.99;100.00;64180.81;6140425;28;20239;-81
2023/05/03 05:06:18;;;;;;;1.57;1.47;;;;;;;-143.99;100.00;64180.81;6132986;28;20239;-80
2023/05/03 05:09:40;;;;;;;1.83;1.50;;;;;;;-143.99;100.00;64180.81;6128454;28;20223;-81
2023/05/03 05:13:01;;;;;;;2.47;1.50;;;;;;;-143.99;100.00;64180.81;6143873;28;20231;-80
2023/05/03 05:16:22;;;;;;;2.50;2.07;;;;;;;-143.99;100.00;64180.81;6135439;28;20324;-82
2023/05/03 05:19:47;;;;;;;1.50;1.40;;;;;;;-143.99;100.00;64180.81;6145715;28;20230;-79
2023/05/03 05:23:10;;;;;;;5.77;4.97;;;;;;;-143.99;100.00;64180.81;6129511;28;20223;-80
2023/05/03 05:26:33;;;;;;;6.53;5.80;;;;;;;-143.99;100.00;64180.81;6143373;28;20227;-80
2023/05/03 05:29:54;;;;;;;3.57;1.87;;;;;;;-143.99;100.00;64180.81;6130871;28;20566;-79
2023/05/03 05:33:16;;;;;;;2.77;2.53;;;;;;;-143.99;100.00;64180.81;6137599;28;20239;-80
2023/05/03 05:36:37;;;;;;;1.40;1.30;;;;;;;-143.99;100.00;64180.81;6140103;28;20239;-81
2023/05/03 05:40:00;;;;;;;2.57;1.50;;;;;;;-143.99;100.00;64180.81;6126073;28;20234;-80
2023/05/03 05:43:26;;;;;;;1.73;1.23;;;;;;;-143.99;100.00;64180.81;6142769;28;20385;-80
2023/05/03 05:46:49;;;;;;;7.33;1.80;;;;;;;-143.99;100.00;64180.81;6124565;28;20601;-81
2023/05/03 05:50:11;;;;;;;1.53;1.43;;;;;;;-143.99;100.00;64180.81;6133355;28;20948;-80
2023/05/03 05:53:33;;;;;;;4.63;1.80;;;;;;;-143.99;100.00;64180.81;6158978;28;20235;-80
2023/05/03 05:56:57;;;;;;;2.57;1.10;;;;;;;-143.99;100.00;64180.81;6131709;28;20514;-81
2023/05/03 06:00:20;;;;;;;4.90;1.83;;;;;;;-143.99;100.00;64180.81;6129599;28;20862;-81
2023/05/03 06:03:41;;;;;;;5.07;1.20;;;;;;;-143.99;100.00;64180.81;6136294;28;20223;-81
2023/05/03 06:07:03;;;;;;;1.53;1.20;;;;;;;-143.99;100.00;64180.81;6141268;28;20227;-79
2023/05/03 06:10:23;;;;;;;2.67;1.50;;;;;;;-143.99;100.00;64180.81;6149872;28;20218;-80
2023/05/03 06:13:48;;;;;;;3.33;1.10;;;;;;;-143.99;100.00;64180.81;6143731;28;20242;-79
2023/05/03 06:17:11;;;;;;;3.40;2.03;;;;;;;-143.99;100.00;64180.81;6132137;28;20246;-81
2023/05/03 06:20:33;;;;;;;3.77;2.40;;;;;;;-143.99;100.00;64180.81;6150173;28;20219;-81
2023/05/03 06:23:54;;;;;;;2.13;1.73;;;;;;;-143.99;100.00;64180.81;6138953;28;20231;-82
2023/05/03 06:27:15;;;;;;;1.10;0.90;;;;;;;-143.99;100.00;64180.81;6138962;28;20234;-81
2023/05/03 06:30:38;;;;;;;1.13;0.77;;;;;;;-143.99;100.00;64180.81;6144050;28;22939;-80
2023/05/03 06:34:05;;;;;;;1.30;1.30;;;;;;;-143.99;100.00;64180.81;6144460;28;20231;-82
2023/05/03 06:37:26;;;;;;;1.70;1.17;;;;;;;-143.99;100.00;64180.81;6135175;28;20512;-81
2023/05/03 06:40:48;;;;;;;1.67;1.57;;;;;;;-143.99;100.00;64180.81;6137652;28;20234;-80
2023/05/03 06:44:09;;;;;;;2.60;1.67;;;;;;;-143.99;100.00;64180.81;6127643;28;20243;-81
2023/05/03 06:47:32;;;;;;;0.70;0.70;;;;;;;-143.99;100.00;64180.81;6140293;28;20239;-81
2023/05/03 06:50:53;;;;;;;1.60;0.70;;;;;;;-143.99;100.00;64180.81;6132139;28;20232;-81
2023/05/03 06:54:15;;;;;;;3.63;1.20;;;;;;;-143.99;100.00;64180.81;6131729;28;20227;-81
2023/05/03 06:57:35;;;;;;;1.87;1.37;;;;;;;-143.99;100.00;64180.81;6154888;28;20259;-80
2023/05/03 07:00:56;;;;;;;1.63;0.80;;;;;;;-143.99;100.00;64180.81;6155168;28;20312;-82
2023/05/03 07:04:19;;;;;;;1.33;1.23;;;;;;;-143.99;100.00;64180.81;6134598;28;20262;-79
2023/05/03 07:07:39;;;;;;;1.67;0.97;;;;;;;-143.99;100.00;64180.81;6157171;28;20239;-82
2023/05/03 07:11:00;;;;;;;0.80;0.80;;;;;;;-143.99;100.00;64180.81;6147372;28;20238;-81
2023/05/03 07:14:21;;;;;;;0.83;0.70;;;;;;;-143.99;100.00;64180.81;6139444;28;20242;-80
2023/05/03 07:17:42;;;;;;;4.93;4.43;;;;;;;-143.99;100.00;64180.81;6155532;28;20227;-80
2023/05/03 07:21:05;;;;;;;3.03;2.70;;;;;;;-143.99;100.00;64180.81;6148903;28;20234;-80
2023/05/03 07:24:26;;;;;;;3.00;1.40;;;;;;;-143.99;100.00;64180.81;6133768;28;20306;-80
2023/05/03 07:27:46;;;;;;;8.80;2.00;;;;;;;-143.99;100.00;64180.81;6160594;28;20869;-81
2023/05/03 07:31:07;;;;;;;1.77;1.27;;;;;;;-143.99;100.00;64180.81;6145905;28;20234;-81
2023/05/03 07:34:28;;;;;;;1.23;1.07;;;;;;;-143.99;100.00;64180.81;6137475;28;20325;-82
2023/05/03 07:37:50;;;;;;;1.90;1.10;;;;;;;-143.99;100.00;64180.81;6152739;28;20231;-79
2023/05/03 07:41:11;;;;;;;1.77;0.90;;;;;;;-143.99;100.00;64180.81;6146154;28;20231;-81
2023/05/03 07:44:32;;;;;;;0.80;0.80;;;;;;;-143.99;100.00;64180.81;6136681;28;20262;-80
2023/05/03 07:47:55;;;;;;;0.97;0.70;;;;;;;-143.99;100.00;64180.81;6150928;28;20625;-81
2023/05/03 07:51:16;;;;;;;1.33;1.23;;;;;;;-143.99;100.00;64180.81;6146744;28;20274;-81
2023/05/03 07:54:38;;;;;;;0.90;0.87;;;;;;;-143.99;100.00;64180.81;6139386;28;20219;-80
2023/05/03 07:58:00;;;;;;;2.00;1.03;;;;;;;-143.99;100.00;64180.81;6145747;28;20246;-81
2023/05/03 08:01:21;;;;;;;1.57;1.10;;;;;;;-143.99;100.00;64180.81;6149822;28;20234;-82
2023/05/03 08:04:42;;;;;;;0.97;0.90;;;;;;;-143.99;100.00;64180.81;6136211;28;20647;-81
2023/05/03 08:08:04;;;;;;;0.90;0.90;;;;;;;-143.99;100.00;64180.81;6148321;28;20239;-81
2023/05/03 08:11:27;;;;;;;3.00;1.73;;;;;;;-143.99;100.00;64180.81;6142795;28;20230;-81
2023/05/03 08:14:48;;;;;;;1.53;0.93;;;;;;;-143.99;100.00;64180.81;6126058;28;20219;-79
2023/05/03 08:18:09;;;;;;;1.23;1.17;;;;;;;-143.99;100.00;64180.81;6149931;28;20239;-82
2023/05/03 08:21:30;;;;;;;0.70;0.70;;;;;;;-143.99;100.00;64180.81;6144305;28;20239;-81
2023/05/03 08:24:51;;;;;;;1.00;0.67;;;;;;;-143.99;100.00;64180.81;6137052;28;20226;-82
2023/05/03 08:28:14;;;;;;;2.10;0.90;;;;;;;-143.99;100.00;64180.81;6139306;28;20718;-80
2023/05/03 08:31:35;;;;;;;1.97;1.60;;;;;;;-143.99;100.00;64180.81;6145377;28;20321;-80
2023/05/03 08:34:56;;;;;;;0.60;0.60;;;;;;;-143.99;100.00;64180.81;6142501;28;20234;-82
2023/05/03 08:38:17;;;;;;;0.87;0.87;;;;;;;-143.99;100.00;64180.81;6143388;28;20242;-81
2023/05/03 08:41:39;;;;;;;0.63;0.63;;;;;;;-143.99;100.00;64180.81;6137732;28;20310;-80
2023/05/03 08:45:03;;;;;;;0.70;0.70;;;;;;;-143.99;100.00;64180.81;6137219;28;20596;-82
2023/05/03 08:48:23;;;;;;;0.67;0.67;;;;;;;-143.99;100.00;64180.81;6148682;28;20235;-81
2023/05/03 08:51:46;;;;;;;1.53;0.70;;;;;;;-143.99;100.00;64180.81;6149246;28;20239;-81
2023/05/03 08:55:08;;;;;;;3.20;1.10;;;;;;;-143.99;100.00;64180.81;6132001;28;20628;-80
2023/05/03 08:58:29;;;;;;;0.60;0.60;;;;;;;-143.99;100.00;64180.81;6142961;28;20236;-81
2023/05/03 09:01:51;;;;;;;1.40;0.70;;;;;;;-143.99;100.00;64180.81;6148371;28;20227;-81
2023/05/03 09:05:32;;;;;;;0.83;0.83;;;;;;;-143.99;100.00;64180.81;6133835;28;20234;-81
2023/05/03 09:08:54;;;;;;;0.60;0.60;;;;;;;-143.99;100.00;64180.81;6140659;28;20230;-79
2023/05/03 09:12:33;;;;;;;3.13;2.83;;;;;;;-143.99;100.00;64180.81;6143861;28;20224;-80
2023/05/03 09:15:55;;;;;;;1.30;1.20;;;;;;;-143.99;100.00;64180.81;6141735;28;20572;-81
2023/05/03 09:19:18;;;;;;;0.87;0.87;;;;;;;-143.99;100.00;64180.81;6131522;28;20640;-80
2023/05/03 09:22:51;;;;;;;0.60;0.60;;;;;;;-143.99;100.00;64180.81;6138515;28;20235;-82
2023/05/03 09:26:30;;;;;;;1.10;0.80;;;;;;;-143.99;100.00;64180.81;6146265;28;20246;-79
2023/05/03 09:29:51;;;;;;;1.10;1.07;;;;;;;-143.99;100.00;64180.81;6134764;28;20591;-81
2023/05/03 09:33:18;;;;;;;2.17;1.60;;;;;;;-143.99;100.00;64180.81;6145352;28;20231;-81
2023/05/03 09:36:49;;;;;;;4.03;0.80;;;;;;;-143.99;100.00;64180.81;6147350;28;20239;-81
2023/05/03 09:40:16;;;;;;;2.10;1.20;;;;;;;-143.99;100.00;64180.81;6134480;28;20233;-81
2023/05/03 09:43:48;;;;;;;2.30;1.17;;;;;;;-143.99;100.00;64180.81;6143581;28;20269;-80
2023/05/03 09:47:10;;;;;;;1.17;1.10;;;;;;;-143.99;100.00;64180.81;6143489;28;20597;-81
2023/05/03 09:50:33;;;;;;;1.60;1.10;;;;;;;-143.99;100.00;64180.81;6142396;28;20250;-82
2023/05/03 09:53:57;;;;;;;0.77;0.77;;;;;;;-143.99;100.00;64180.81;6136674;28;20298;-80
2023/05/03 09:57:19;;;;;;;1.10;1.00;;;;;;;-143.99;100.00;64180.81;6141036;28;20647;-81
2023/05/03 10:00:42;;;;;;;0.70;0.70;;;;;;;-143.99;100.00;64180.81;6142028;28;20655;-81
2023/05/03 10:04:06;;;;;;;0.93;0.80;;;;;;;-143.99;100.00;64180.81;6137411;28;20227;-80
2023/05/03 10:07:28;;;;;;;1.57;0.70;;;;;;;-143.99;100.00;64180.81;6134562;28;20696;-77
2023/05/03 10:10:53;;;;;;;2.00;1.63;;;;;;;-143.99;100.00;64180.81;6144661;28;20620;-78
2023/05/03 10:14:14;;;;;;;0.50;0.50;;;;;;;-143.99;100.00;64180.81;6128750;28;20235;-76
2023/05/03 10:17:39;;;;;;;1.53;0.93;;;;;;;-143.99;100.00;64180.81;6138861;28;20262;-77
2023/05/03 10:21:04;;;;;;;0.70;0.60;;;;;;;-143.99;100.00;64180.81;6138529;28;20317;-78
2023/05/03 10:24:25;;;;;;;0.70;0.70;;;;;;;-143.99;100.00;64180.81;6129990;28;20232;-78
2023/05/03 10:27:54;;;;;;;0.83;0.80;;;;;;;-143.99;100.00;64180.81;6152930;28;20613;-77
2023/05/03 10:31:43;;;;;;;6.67;0.90;;;;;;;-143.99;100.00;64180.81;6144982;28;20238;-78
2023/05/03 10:35:08;;;;;;;1.53;1.00;;;;;;;-143.99;100.00;64180.81;6134826;28;20318;-77
2023/05/03 10:38:31;;;;;;;1.83;1.07;;;;;;;-143.99;100.00;64180.81;6143827;28;20235;-77
2023/05/03 10:42:02;;;;;;;8.17;7.37;;;;;;;-143.99;100.00;64180.81;6132632;28;20223;-78
2023/05/03 10:45:27;;;;;;;7.37;1.80;;;;;;;-143.99;100.00;64180.81;6142521;28;20586;-76
2023/05/03 10:49:18;;;;;;;1.70;0.73;;;;;;;-143.99;100.00;64180.81;6149299;28;20322;-79
2023/05/03 10:52:48;;;;;;;0.57;0.57;;;;;;;-143.99;100.00;64180.81;6145402;28;20309;-80
2023/05/03 10:56:11;;;;;;;2.10;1.33;;;;;;;-143.99;100.00;64180.81;6151430;28;20245;-79
2023/05/03 10:59:47;;;;;;;4.80;1.87;;;;;;;-143.99;100.00;64180.81;6136675;28;20242;-79
2023/05/03 11:03:22;;;;;;;1.27;0.70;;;;;;;-143.99;100.00;64180.81;6133988;28;20242;-80
2023/05/03 11:06:45;;;;;;;0.97;0.90;;;;;;;-143.99;100.00;64180.81;6144213;28;20227;-81
2023/05/03 11:10:16;;;;;;;1.53;0.93;;;;;;;-143.99;100.00;64180.81;6142691;28;20226;-78
2023/05/03 11:13:37;;;;;;;1.20;1.17;;;;;;;-143.99;100.00;64180.81;6148120;28;20226;-80
2023/05/03 11:16:59;;;;;;;0.83;0.60;;;;;;;-143.99;100.00;64180.81;6147041;28;20235;-81
2023/05/03 11:20:22;;;;;;;1.93;0.90;;;;;;;-143.99;100.00;64180.81;6148337;28;20910;-80
2023/05/03 11:23:44;;;;;;;1.80;1.17;;;;;;;-143.99;100.00;64180.81;6132846;28;20231;-81
2023/05/03 11:27:05;;;;;;;1.73;0.70;;;;;;;-143.99;100.00;64180.81;6134897;28;20310;-81
2023/05/03 11:30:27;;;;;;;0.70;0.70;;;;;;;-143.99;100.00;64180.81;6138598;28;20502;-82
2023/05/03 11:33:49;;;;;;;0.90;0.60;;;;;;;-143.99;100.00;64180.81;6150834;28;20504;-81
2023/05/03 11:37:11;;;;;;;0.60;0.60;;;;;;;-143.99;100.00;64180.81;6139186;28;20239;-82
2023/05/03 11:40:32;;;;;;;0.77;0.73;;;;;;;-143.99;100.00;64180.81;6142305;28;20234;-81
2023/05/03 11:43:53;;;;;;;0.70;0.70;;;;;;;-143.99;100.00;64180.81;6154450;28;20239;-81
2023/05/03 11:47:14;;;;;;;1.63;1.10;;;;;;;-143.99;100.00;64180.81;6139639;28;20247;-81
2023/05/03 11:50:46;;;;;;;1.10;1.00;;;;;;;-143.99;100.00;64180.81;6135079;28;20231;-81
2023/05/03 11:54:09;;;;;;;0.80;0.70;;;;;;;-143.99;100.00;64180.81;6142341;28;20665;-80
2023/05/03 11:57:31;;;;;;;1.13;1.00;;;;;;;-143.99;100.00;64180.81;6147474;28;20265;-80
2023/05/03 12:00:55;;;;;;;2.57;1.20;;;;;;;-143.99;100.00;64180.81;6152768;28;20562;-81
2023/05/03 12:04:16;;;;;;;1.87;0.83;;;;;;;-143.99;100.00;64180.81;6135858;28;20277;-81
2023/05/03 12:07:38;;;;;;;0.67;0.67;;;;;;;-143.99;100.00;64180.81;6147949;28;20258;-82
2023/05/03 12:11:03;;;;;;;1.77;1.42;;;;;;;-143.99;100.00;64180.81;6148460;28;20235;-81
2023/05/03 12:14:24;;;;;;;0.85;0.82;;;;;;;-143.99;100.00;64180.81;6131135;28;20251;-79
2023/05/03 12:17:45;;;;;;;0.65;0.65;;;;;;;-143.99;100.00;64180.81;6147842;28;20227;-83
2023/05/03 12:21:06;;;;;;;3.35;1.00;;;;;;;-143.99;100.00;64180.81;6144776;28;21933;-80
2023/05/03 12:24:27;;;;;;;1.48;1.25;;;;;;;-143.99;100.00;64180.81;6124670;28;20231;-80
2023/05/03 12:27:51;;;;;;;1.52;0.88;;;;;;;-143.99;100.00;64180.81;6152829;28;20230;-80
2023/05/03 12:31:12;;;;;;;0.52;0.50;;;;;;;-143.99;100.00;64180.81;6146760;28;20617;-82
2023/05/03 12:34:33;;;;;;;1.75;0.90;;;;;;;-143.99;100.00;64180.81;6135207;28;20583;-81
2023/05/03 12:37:54;;;;;;;1.48;0.88;;;;;;;-143.99;100.00;64180.81;6154207;28;20334;-81
2023/05/03 12:41:15;;;;;;;1.90;1.17;;;;;;;-143.99;100.00;64180.81;6133616;28;20230;-81
2023/05/03 12:44:39;;;;;;;1.15;1.15;;;;;;;-143.99;100.00;64180.81;6134987;28;20317;-81
2023/05/03 12:47:59;;;;;;;1.92;1.13;;;;;;;-143.99;100.00;64180.81;6146129;28;20574;-80
2023/05/03 12:51:20;;;;;;;1.33;1.20;;;;;;;-143.99;100.00;64180.81;6148330;28;20241;-79
2023/05/03 12:54:41;;;;;;;0.77;0.77;;;;;;;-143.99;100.00;64180.81;6135263;28;20246;-81
2023/05/03 12:58:03;;;;;;;5.03;3.28;;;;;;;-143.99;100.00;64180.81;6150185;28;20243;-81
2023/05/03 13:01:25;;;;;;;3.15;1.80;;;;;;;-143.99;100.00;64180.81;6135337;28;20613;-80
2023/05/03 13:04:49;;;;;;;2.55;1.50;;;;;;;-143.99;100.00;64180.81;6133946;28;20226;-81
2023/05/03 13:08:10;;;;;;;1.75;1.33;;;;;;;-143.99;100.00;64180.81;6148823;28;20238;-81
2023/05/03 13:11:33;;;;;;;1.27;1.17;;;;;;;-143.99;100.00;64180.81;6141979;28;20241;-81
2023/05/03 13:14:54;;;;;;;1.10;1.00;;;;;;;-143.99;100.00;64180.81;6138036;28;20231;-80
2023/05/03 13:18:17;;;;;;;1.55;1.45;;;;;;;-143.99;100.00;64180.81;6143296;28;20518;-79
2023/05/03 13:21:37;;;;;;;1.30;1.20;;;;;;;-143.99;100.00;64180.81;6148561;28;20227;-80
2023/05/03 13:24:58;;;;;;;2.20;1.60;;;;;;;-143.99;100.00;64180.81;6144691;28;20592;-80
2023/05/03 13:28:23;;;;;;;0.85;0.70;;;;;;;-143.99;100.00;64180.81;6152792;28;20227;-81
2023/05/03 13:31:43;;;;;;;1.30;1.08;;;;;;;-143.99;100.00;64180.81;6143906;28;20593;-81
2023/05/03 13:35:08;;;;;;;1.23;1.15;;;;;;;-143.99;100.00;64180.81;6147035;28;20230;-80
2023/05/03 13:38:29;;;;;;;2.67;1.02;;;;;;;-143.99;100.00;64180.81;6144726;28;20649;-80
2023/05/03 13:41:50;;;;;;;1.77;1.10;;;;;;;-143.99;100.00;64180.81;6151203;28;20227;-81
2023/05/03 13:45:12;;;;;;;1.95;0.90;;;;;;;-143.99;100.00;64180.81;6139030;28;20226;-80
2023/05/03 13:48:33;;;;;;;2.05;1.05;;;;;;;-143.99;100.00;64180.81;6142014;28;20227;-80
2023/05/03 13:51:56;;;;;;;1.42;1.27;;;;;;;-143.99;100.00;64180.81;6144202;28;20407;-80
2023/05/03 13:55:16;;;;;;;1.20;1.20;;;;;;;-143.99;100.00;64180.81;6140735;28;20333;-78
2023/05/03 13:58:38;;;;;;;3.17;0.95;;;;;;;-143.99;100.00;64180.81;6148319;28;20247;-80
2023/05/03 14:01:59;;;;;;;2.15;1.20;;;;;;;-143.99;100.00;64180.81;6146754;28;20234;-79
2023/05/03 14:05:20;;;;;;;2.10;1.38;;;;;;;-143.99;100.00;64180.81;6135047;28;20226;-80
2023/05/03 14:08:42;;;;;;;0.93;0.85;;;;;;;-143.99;100.00;64180.81;6148735;28;20235;-80
2023/05/03 14:12:03;;;;;;;1.02;0.88;;;;;;;-143.99;100.00;64180.81;6149095;28;20690;-80
2023/05/03 14:15:25;;;;;;;0.90;0.80;;;;;;;-143.99;100.00;64180.81;6140386;28;20508;-82
2023/05/03 14:18:47;;;;;;;1.88;1.17;;;;;;;-143.99;100.00;64180.81;6150684;28;20634;-79
2023/05/03 14:22:08;;;;;;;1.80;1.70;;;;;;;-143.99;100.00;64180.81;6135731;28;20231;-80
2023/05/03 14:25:30;;;;;;;3.15;1.67;;;;;;;-143.99;100.00;64180.81;6146942;28;20225;-80
2023/05/03 14:28:51;;;;;;;6.18;5.57;;;;;;;-143.99;100.00;64180.81;6154924;28;20226;-79
2023/05/03 14:32:13;;;;;;;4.97;4.57;;;;;;;-143.99;100.00;64180.81;6150443;28;20242;-82
2023/05/03 14:35:34;;;;;;;1.85;1.38;;;;;;;-143.99;100.00;64180.81;6149679;28;20227;-83
2023/05/03 14:38:55;;;;;;;1.65;1.55;;;;;;;-143.99;100.00;64180.81;6151664;28;20235;-81
2023/05/03 14:42:17;;;;;;;1.63;1.20;;;;;;;-143.99;100.00;64180.81;6146510;28;20637;-80
2023/05/03 14:45:38;;;;;;;5.30;1.20;;;;;;;-143.99;100.00;64180.81;6148219;28;20261;-82
2023/05/03 14:49:00;;;;;;;7.97;7.18;;;;;;;-143.99;100.00;64180.81;6142394;28;20299;-80
2023/05/03 14:52:21;;;;;;;4.22;2.95;;;;;;;-143.99;100.00;64180.81;6131081;28;20491;-78
2023/05/03 14:55:42;;;;;;;4.05;2.60;;;;;;;-143.99;100.00;64180.81;6141546;28;20227;-79
2023/05/03 14:59:05;;;;;;;1.65;1.55;;;;;;;-143.99;100.00;64180.81;6135999;28;20823;-79
2023/05/03 15:02:26;;;;;;;3.67;2.53;;;;;;;-143.99;100.00;64180.81;6124847;28;20753;-78
2023/05/03 15:05:49;;;;;;;6.22;5.68;;;;;;;-143.99;100.00;64180.81;6143619;28;20222;-80
2023/05/03 15:09:11;;;;;;;3.08;2.58;;;;;;;-143.99;100.00;64180.81;6142446;28;20231;-78
2023/05/03 15:12:32;;;;;;;1.10;1.10;;;;;;;-143.99;100.00;64180.81;6156525;28;20239;-82
2023/05/03 15:15:55;;;;;;;2.08;1.88;;;;;;;-143.99;100.00;64180.81;6147082;28;20253;-80
2023/05/03 15:19:16;;;;;;;3.50;3.03;;;;;;;-143.99;100.00;64180.81;6131200;28;20310;-81
2023/05/03 15:22:37;;;;;;;3.63;3.28;;;;;;;-143.99;100.00;64180.81;6162669;28;20242;-79